Time;durP1;ratioP1;P1;durP2;ratioP2;P2;SDS_P1;SDS_P2;PMS_P1;PMS_P2;Temp;Humidity;BMP_temperature;BMP_pressure;BME280_temperature;BME280_humidity;BME280_pressure;Samples;Min_cycle;Max_cycle;Signal;HPM_P1;HPM_P2
2022/02/22 00:03:36;;;;;;;;;;;;;;;;;;;;;
2022/02/22 00:06:37;;;;;;;;;;;;;;;;;;;;;
2022/02/22 00:09:59;;;;;;;;;;;;;;;;;;;;;
2022/02/22 00:13:48;;;;;;;4.10;2.50;;;;;;;4.55;66.25;98866.46;107861;1290;23755;-83
2022/02/22 00:17:50;;;;;;;5.00;2.70;;;;;;;4.55;66.39;98869.52;108204;1285;23169;-83
2022/02/22 00:24:33;;;;;;;;;;;;;;;;;;;;;
2022/02/22 00:32:02;;;;;;;;;;;;;;;;;;;;;
2022/02/22 00:50:46;;;;;;;2.30;1.80;;;;;;;6.03;62.55;98910.17;109400;1272;547881;-85
2022/02/22 00:54:47;;;;;;;3.70;2.30;;;;;;;5.79;61.33;98924.33;107153;1257;21985;-83
2022/02/22 00:59:22;;;;;;;;;;;;;;;;;;;;;
2022/02/22 01:02:58;;;;;;;;;;;;;;;;;;;;;
2022/02/22 01:07:17;;;;;;;;;;;;;;;;;;;;;
2022/02/22 01:26:34;;;;;;;3.80;2.00;;;;;;;5.83;60.03;98985.44;108824;1272;548029;-85
2022/02/22 01:33:55;;;;;;;;;;;;;;;;;;;;;
2022/02/22 01:38:04;;;;;;;;;;;;;;;;;;;;;
2022/02/22 01:42:12;;;;;;;;;;;;;;;;;;;;;
2022/02/22 01:46:19;;;;;;;;;;;;;;;;;;;;;
2022/02/22 01:50:09;;;;;;;5.80;2.80;;;;;;;4.49;62.65;99034.91;110168;1260;21934;-83
2022/02/22 01:53:37;;;;;;;;;;;;;;;;;;;;;
2022/02/22 01:57:24;;;;;;;4.80;2.90;;;;;;;4.36;63.16;99034.89;109268;1269;22053;-84
2022/02/22 02:00:31;;;;;;;;;;;;;;;;;;;;;
2022/02/22 02:03:31;;;;;;;;;;;;;;;;;;;;;
2022/02/22 02:06:31;;;;;;;;;;;;;;;;;;;;;
2022/02/22 02:10:04;;;;;;;;;;;;;;;;;;;;;
2022/02/22 02:13:25;;;;;;;;;;;;;;;;;;;;;
2022/02/22 02:16:56;;;;;;;6.10;2.60;;;;;;;4.15;64.27;99051.75;110266;1256;22089;-85
2022/02/22 02:21:11;;;;;;;5.60;2.70;;;;;;;4.11;64.29;99055.33;110239;1256;22015;-82
2022/02/22 02:25:09;;;;;;;;;;;;;;;;;;;;;
2022/02/22 02:29:27;;;;;;;;;;;;;;;;;;;;;
2022/02/22 02:33:11;;;;;;;4.80;1.90;;;;;;;4.07;64.76;99070.48;110312;1260;21984;-84
2022/02/22 02:36:46;;;;;;;5.10;2.10;;;;;;;4.07;64.86;99074.55;110342;1256;22044;-84
2022/02/22 02:40:11;;;;;;;;;;;;;;;;;;;;;
2022/02/22 02:44:43;;;;;;;;;;;;;;;;;;;;;
2022/02/22 02:49:54;;;;;;;6.10;2.60;;;;;;;3.99;65.50;99088.77;110190;1262;21989;-84
2022/02/22 02:53:43;;;;;;;5.80;2.30;;;;;;;3.99;65.83;99087.85;110542;1259;23079;-85
2022/02/22 02:57:38;;;;;;;;;;;;;;;;;;;;;
2022/02/22 03:01:45;;;;;;;;;;;;;;;;;;;;;
2022/02/22 03:05:21;;;;;;;6.70;2.60;;;;;;;4.04;66.26;99108.77;109483;1265;21996;-83
2022/02/22 03:08:36;;;;;;;;;;;;;;;;;;;;;
2022/02/22 03:11:29;;;;;;;;;;;;;;;4.07;66.48;99118.04;109369;1265;22329;-82
2022/02/22 03:14:33;;;;;;;7.70;3.20;;;;;;;4.03;66.71;99119.18;109370;1267;22065;-83
2022/02/22 03:18:34;;;;;;;;;;;;;;;;;;;;;
2022/02/22 03:21:32;;;;;;;;;;;;;;;;;;;;;
2022/02/22 03:25:03;;;;;;;;;;;;;;;;;;;;;
2022/02/22 03:28:18;;;;;;;;;;;;;;;;;;;;;
2022/02/22 03:31:20;;;;;;;5.10;2.90;;;;;;;4.09;67.06;99143.84;108803;1273;23024;-83
2022/02/22 03:34:22;;;;;;;4.60;2.90;;;;;;;4.11;67.16;99149.02;108880;1272;22385;-83
2022/02/22 03:37:09;;;;;;;7.90;2.50;;;;;;;4.14;67.30;99152.54;109531;1266;21967;-83
2022/02/22 03:40:51;;;;;;;7.90;2.80;;;;;;;4.18;67.36;99164.54;109342;1266;22030;-83
2022/02/22 03:43:57;;;;;;;;;;;;;;;;;;;;;
2022/02/22 03:47:14;;;;;;;7.00;3.80;;;;;;;4.18;67.30;99168.51;109396;1266;22084;-84
2022/02/22 03:50:52;;;;;;;;;;;;;;;;;;;;;
2022/02/22 03:54:48;;;;;;;6.60;3.20;;;;;;;4.13;67.68;99183.48;108889;1274;21992;-83
2022/02/22 03:57:40;;;;;;;6.50;2.80;;;;;;;4.11;67.89;99188.63;108900;1265;22452;-83
2022/02/22 04:01:05;;;;;;;9.30;3.10;;;;;;;4.10;67.91;99189.27;109506;1265;22013;-83
2022/02/22 04:16:07;;;;;;;;;;;;;;;;;;;;;
2022/02/22 04:20:01;;;;;;;;;;;;;;;;;;;;;
2022/02/22 04:23:47;;;;;;;;;;;;;;;;;;;;;
2022/02/22 04:27:49;;;;;;;9.80;3.50;;;;;;;4.70;66.40;99222.24;111173;1250;21997;-81
2022/02/22 04:31:38;;;;;;;;;;;;;;;;;;;;;
2022/02/22 04:35:30;;;;;;;8.50;3.70;;;;;;;4.39;67.53;99239.45;110621;1256;21959;-83
2022/02/22 04:39:31;;;;;;;;;;;;;;;;;;;;;
2022/02/22 04:42:56;;;;;;;;;;;;;;;;;;;;;
2022/02/22 04:55:28;;;;;;;;;;;;;;;;;;;;;
2022/02/22 04:58:56;;;;;;;;;;;;;;;;;;;;;
2022/02/22 05:02:44;;;;;;;;;;;;;;;;;;;;;
2022/02/22 05:06:40;;;;;;;;;;;;;;;;;;;;;
2022/02/22 05:10:47;;;;;;;16.10;8.30;;;;;;;4.18;69.20;99286.98;109156;1270;21989;-83
2022/02/22 05:14:08;;;;;;;10.30;5.20;;;;;;;4.20;69.35;99290.46;109105;1273;22040;-83
2022/02/22 05:18:08;;;;;;;15.20;6.10;;;;;;;4.23;69.39;99294.86;108802;1279;22506;-84
2022/02/22 05:21:53;;;;;;;;;;;;;;;;;;;;;
2022/02/22 05:25:29;;;;;;;;;;;;;;;;;;;;;
2022/02/22 05:29:12;;;;;;;11.60;5.40;;;;;;;4.23;69.61;99320.66;108995;1273;22444;-82
2022/02/22 05:33:13;;;;;;;;;;;;;;;;;;;;;
2022/02/22 05:36:57;;;;;;;;;;;;;;;;;;;;;
2022/02/22 05:40:21;;;;;;;;;;;;;;;;;;;;;
2022/02/22 05:51:53;;;;;;;11.80;4.30;;;;;;;4.27;70.15;99358.45;108519;1288;22015;-85
2022/02/22 05:59:18;;;;;;;11.60;4.10;;;;;;;4.31;70.10;99372.00;107786;1292;23348;-84
2022/02/22 06:02:36;;;;;;;;;;;;;;;;;;;;;
2022/02/22 06:05:41;;;;;;;;;;;;;;;;;;;;;
2022/02/22 06:08:18;;;;;;;12.20;5.40;;;;;;;4.59;70.88;99393.65;107180;1292;22103;-77
2022/02/22 06:10:49;;;;;;;17.90;9.40;;;;;;;4.69;70.71;99394.48;107251;1291;22015;-77
2022/02/22 06:13:24;;;;;;;20.30;8.40;;;;;;;4.76;70.52;99397.18;107143;1291;22657;-79
2022/02/22 06:16:20;;;;;;;14.40;5.20;;;;;;;4.80;70.46;99405.19;107334;1291;22065;-81
2022/02/22 06:19:21;;;;;;;;;;;;;;;;;;;;;
2022/02/22 06:22:12;;;;;;;;;;;;;;;;;;;;;
2022/02/22 06:25:30;;;;;;;13.60;5.10;;;;;;;4.72;70.29;99430.38;108540;1278;22116;-82
2022/02/22 06:28:46;;;;;;;14.60;5.30;;;;;;;4.71;70.49;99433.95;108815;1273;22008;-77
2022/02/22 06:31:14;;;;;;;10.80;5.00;;;;;;;4.74;70.53;99439.11;108745;1264;21989;-77
2022/02/22 06:34:28;;;;;;;;;;;;;;;;;;;;;
2022/02/22 06:38:55;;;;;;;15.70;5.40;;;;;;;4.74;70.70;99442.88;109275;1275;22049;-80
2022/02/22 06:42:48;;;;;;;;;;;;;;;;;;;;;
2022/02/22 06:46:28;;;;;;;;;;;;;;;;;;;;;
2022/02/22 07:13:55;;;;;;;17.10;14.20;;;;;;;6.93;65.21;99500.57;103364;1292;6498290;-82
2022/02/22 07:19:10;;;;;;;;;;;;;;;;;;;;;
2022/02/22 07:23:18;;;;;;;;;;;;;;;;;;;;;
2022/02/22 07:27:20;;;;;;;17.00;6.70;;;;;;;6.43;65.53;99530.58;110243;1260;22314;-82
2022/02/22 07:31:16;;;;;;;;;;;;;;;;;;;;;
2022/02/22 07:35:00;;;;;;;11.10;5.30;;;;;;;6.24;66.83;99537.65;110107;1259;22035;-83
2022/02/22 07:39:05;;;;;;;;;;;;;;;;;;;;;
2022/02/22 07:43:27;;;;;;;14.20;6.00;;;;;;;6.29;67.30;99549.89;109185;1270;22052;-82
2022/02/22 07:47:06;;;;;;;12.70;5.90;;;;;;;6.22;66.95;99550.63;108540;1279;22111;-83
2022/02/22 07:50:18;;;;;;;12.60;7.50;;;;;;;6.19;67.32;99561.70;108445;1280;24266;-81
2022/02/22 07:57:07;;;;;;;;;;;;;;;;;;;;;
2022/02/22 08:01:15;;;;;;;;;;;;;;;;;;;;;
2022/02/22 08:04:45;;;;;;;;;;;;;;;;;;;;;
2022/02/22 08:08:08;;;;;;;;;;;;;;;;;;;;;
2022/02/22 08:11:33;;;;;;;;;;;;;;;;;;;;;
2022/02/22 08:14:48;;;;;;;9.00;4.30;;;;;;;8.64;66.97;99598.35;108543;1279;22087;-83
2022/02/22 08:17:42;;;;;;;5.90;3.00;;;;;;;9.12;65.98;99603.96;108474;1280;22009;-82
2022/02/22 08:20:46;;;;;;;7.10;3.60;;;;;;;9.55;64.10;99606.50;108787;1276;22011;-83
2022/02/22 08:23:50;;;;;;;6.40;3.70;;;;;;;9.82;62.29;99611.94;108678;1276;23734;-83
2022/02/22 08:27:24;;;;;;;8.70;4.40;;;;;;;10.06;61.76;99618.20;108811;1276;23633;-83
2022/02/22 08:30:26;;;;;;;;;;;;;;;;;;;;;
2022/02/22 08:33:18;;;;;;;6.30;3.90;;;;;;;10.21;59.54;99621.94;108780;1276;23244;-81
2022/02/22 08:36:20;;;;;;;9.00;4.40;;;;;;;10.39;59.12;99624.95;108900;1269;24369;-83
2022/02/22 08:39:24;;;;;;;12.70;4.80;;;;;;;10.31;57.41;99629.05;109244;1269;21989;-82
2022/02/22 08:42:19;;;;;;;8.00;4.10;;;;;;;9.98;56.73;99634.48;109563;1264;22283;-81
2022/02/22 08:45:43;;;;;;;9.30;4.00;;;;;;;9.74;57.28;99636.66;110210;1259;22993;-81
2022/02/22 08:48:52;;;;;;;5.20;3.20;;;;;;;9.86;58.52;99639.39;110560;1253;23703;-82
2022/02/22 08:51:58;;;;;;;;;;;;;;;;;;;;;
2022/02/22 08:55:29;;;;;;;;;;;;;;;;;;;;;
2022/02/22 08:58:16;;;;;;;;;;;;;;;;;;;;;
2022/02/22 09:01:02;;;;;;;6.10;3.50;;;;;;;10.77;55.76;99663.48;111052;1253;21970;-81
2022/02/22 09:04:04;;;;;;;;;;;;;;;;;;;;;
2022/02/22 09:06:43;;;;;;;6.00;3.90;;;;;;;10.18;54.29;99669.24;111130;1253;23037;-82
2022/02/22 09:10:10;;;;;;;8.20;3.30;;;;;;;9.66;54.68;99676.80;111283;1253;23622;-81
2022/02/22 09:12:55;;;;;;;7.50;3.70;;;;;;;9.20;55.20;99685.10;110286;1259;21972;-80
2022/02/22 09:15:51;;;;;;;10.30;4.60;;;;;;;8.84;55.80;99685.26;110033;1259;22042;-81
2022/02/22 09:19:28;;;;;;;6.60;3.50;;;;;;;8.56;56.61;99689.66;110697;1259;21989;-80
2022/02/22 09:21:36;;;;;;;8.20;3.60;;;;;;;8.37;57.55;99693.69;109473;1265;23128;-81
2022/02/22 09:24:45;;;;;;;7.70;4.40;;;;;;;8.22;58.01;99699.84;109071;1271;22026;-80
2022/02/22 09:27:30;;;;;;;9.50;4.60;;;;;;;8.08;58.45;99693.56;109408;1276;23028;-81
2022/02/22 09:31:02;;;;;;;;;;;;;;;;;;;;;
2022/02/22 09:34:05;;;;;;;5.40;2.60;;;;;;;7.99;59.06;99707.31;108276;1281;22779;-79
2022/02/22 09:36:48;;;;;;;4.90;3.00;;;;;;;7.84;58.94;99714.33;108897;1282;22014;-79
2022/02/22 09:39:34;;;;;;;6.00;3.10;;;;;;;7.69;59.22;99718.42;108401;1276;23618;-79
2022/02/22 09:42:25;;;;;;;;;;;;;;;;;;;;;
2022/02/22 09:45:01;;;;;;;7.90;4.70;;;;;;;7.47;59.98;99735.63;109716;1259;21976;-79
2022/02/22 09:47:58;;;;;;;;;;;;;;;;;;;;;
2022/02/22 09:50:36;;;;;;;8.40;4.50;;;;;;;7.24;61.12;99744.76;109109;1268;23152;-79
2022/02/22 09:53:15;;;;;;;9.50;3.80;;;;;;;7.34;62.51;99745.33;109457;1268;21988;-79
2022/02/22 09:55:52;;;;;;;9.30;4.20;;;;;;;7.66;63.72;99752.52;109074;1273;22004;-79
2022/02/22 09:58:53;;;;;;;6.70;3.60;;;;;;;8.13;64.02;99758.04;108992;1275;23609;-79
2022/02/22 10:01:44;;;;;;;8.20;5.30;;;;;;;8.42;62.47;99756.81;108593;1279;22066;-79
2022/02/22 10:04:52;;;;;;;8.00;4.20;;;;;;;8.45;61.17;99759.09;108233;1282;23659;-78
2022/02/22 10:07:35;;;;;;;;;;;;;;;;;;;;;
2022/02/22 10:10:26;;;;;;;;;;;;;;;;;;;;;
2022/02/22 10:13:25;;;;;;;7.00;4.20;;;;;;;7.91;59.98;99764.95;108774;1277;21994;-79
2022/02/22 10:16:50;;;;;;;5.60;2.80;;;;;;;7.67;60.13;99783.85;109576;1273;22042;-78
2022/02/22 10:19:37;;;;;;;4.00;2.20;;;;;;;7.27;60.06;99789.45;108487;1276;21998;-78
2022/02/22 10:22:32;;;;;;;5.30;2.70;;;;;;;6.93;60.61;99793.70;108931;1270;21998;-79
2022/02/22 10:25:30;;;;;;;4.60;2.70;;;;;;;6.69;61.42;99801.56;109001;1269;23119;-79
2022/02/22 10:28:27;;;;;;;7.40;3.70;;;;;;;6.53;62.39;99802.85;108845;1273;22037;-78
2022/02/22 10:31:17;;;;;;;6.10;4.10;;;;;;;6.46;63.08;99802.45;108829;1276;21979;-79
2022/02/22 10:34:08;;;;;;;11.10;4.90;;;;;;;6.37;63.65;99811.27;108908;1273;21957;-80
2022/02/22 10:36:51;;;;;;;9.60;4.60;;;;;;;6.28;64.10;99819.80;109446;1276;22041;-79
2022/02/22 10:39:22;;;;;;;16.00;8.10;;;;;;;6.26;64.47;99825.48;108803;1276;22042;-78
2022/02/22 10:41:58;;;;;;;15.60;5.80;;;;;;;6.26;64.97;99825.33;108560;1276;22010;-75
2022/02/22 10:44:46;;;;;;;18.70;9.10;;;;;;;6.24;65.06;99830.21;108330;1279;23465;-75
2022/02/22 10:47:22;;;;;;;;;;;;;;;6.21;65.09;99831.76;108284;1276;22035;-75
2022/02/22 10:50:08;;;;;;;24.30;6.60;;;;;;;6.09;65.22;99832.96;108578;1273;21963;-75
2022/02/22 10:53:11;;;;;;;20.70;6.00;;;;;;;6.03;65.41;99836.13;108657;1273;23727;-75
2022/02/22 10:55:57;;;;;;;15.50;5.40;;;;;;;6.01;65.38;99836.86;108584;1267;23642;-74
2022/02/22 10:58:27;;;;;;;17.50;6.20;;;;;;;5.99;65.37;99840.36;109273;1264;22182;-75
2022/02/22 11:01:29;;;;;;;;;;;;;;;;;;;;;
2022/02/22 11:04:19;;;;;;;19.20;6.90;;;;;;;5.94;65.03;99852.20;109755;1263;23041;-74
2022/02/22 11:06:56;;;;;;;22.30;10.70;;;;;;;5.92;64.96;99852.23;108871;1271;23742;-77
2022/02/22 11:09:34;;;;;;;22.70;10.60;;;;;;;5.95;64.80;99852.14;108852;1270;21994;-76
2022/02/22 11:12:22;;;;;;;16.40;6.40;;;;;;;5.99;64.72;99858.95;108532;1276;21999;-75
2022/02/22 11:15:12;;;;;;;18.30;7.80;;;;;;;6.01;64.49;99858.17;108770;1270;23725;-75
2022/02/22 11:17:51;;;;;;;21.70;12.40;;;;;;;6.07;64.48;99863.57;108931;1270;22946;-75
2022/02/22 11:20:34;;;;;;;21.90;12.40;;;;;;;6.15;64.41;99865.02;108854;1270;22008;-76
2022/02/22 11:23:28;;;;;;;18.70;9.30;;;;;;;6.17;63.98;99866.80;108823;1270;23721;-76
2022/02/22 11:26:13;;;;;;;23.10;8.40;;;;;;;6.18;63.86;99874.67;109146;1265;22046;-76
2022/02/22 11:28:58;;;;;;;23.80;8.50;;;;;;;6.21;63.74;99879.45;109521;1262;23687;-76
2022/02/22 11:31:31;;;;;;;18.90;7.40;;;;;;;6.27;63.78;99882.35;109878;1256;23797;-76
2022/02/22 11:34:06;;;;;;;20.60;10.50;;;;;;;6.32;63.61;99887.09;110091;1257;21972;-76
2022/02/22 11:36:44;;;;;;;23.90;13.40;;;;;;;6.38;63.64;99890.08;110083;1255;21981;-76
2022/02/22 11:39:24;;;;;;;24.30;9.50;;;;;;;6.48;63.63;99887.98;110093;1256;22459;-75
2022/02/22 11:42:15;;;;;;;20.60;12.60;;;;;;;6.54;63.25;99895.29;110251;1256;21963;-75
2022/02/22 11:45:07;;;;;;;14.90;8.30;;;;;;;6.51;62.76;99897.83;110494;1254;21963;-75
2022/02/22 11:47:39;;;;;;;29.60;12.10;;;;;;;6.44;62.70;99897.45;110546;1253;21999;-75
2022/02/22 11:50:18;;;;;;;22.20;9.00;;;;;;;6.44;62.66;99902.40;110584;1253;21966;-75
2022/02/22 11:52:53;;;;;;;23.10;11.60;;;;;;;6.41;62.38;99905.00;110559;1253;21975;-75
2022/02/22 11:55:38;;;;;;;22.10;13.10;;;;;;;6.38;62.36;99914.55;110707;1253;22193;-75
2022/02/22 11:58:22;;;;;;;20.20;10.40;;;;;;;6.37;62.44;99921.27;110510;1254;22969;-75
2022/02/22 12:00:58;;;;;;;22.50;10.90;;;;;;;6.39;62.37;99921.98;110596;1253;23047;-76
2022/02/22 12:03:43;;;;;;;18.10;7.70;;;;;;;6.38;62.03;99920.83;109803;1259;22113;-75
2022/02/22 12:06:23;;;;;;;;;;;;;;;;;;;;;
2022/02/22 12:09:07;;;;;;;20.00;8.30;;;;;;;6.35;62.01;99923.70;109335;1265;22265;-76
2022/02/22 12:11:51;;;;;;;17.50;6.90;;;;;;;6.34;61.75;99933.66;109495;1264;21979;-75
2022/02/22 12:14:25;;;;;;;10.70;4.50;;;;;;;6.29;61.34;99931.51;109189;1265;22083;-75
2022/02/22 12:17:08;;;;;;;16.60;6.20;;;;;;;6.28;61.46;99932.98;109351;1264;22055;-75
2022/02/22 12:19:51;;;;;;;16.80;5.60;;;;;;;6.33;61.32;99939.38;109387;1264;23726;-75
2022/02/22 12:22:26;;;;;;;19.80;7.50;;;;;;;6.36;60.99;99943.40;109736;1259;22054;-75
2022/02/22 12:25:11;;;;;;;15.90;6.60;;;;;;;6.36;60.66;99944.77;110023;1259;22767;-74
2022/02/22 12:27:45;;;;;;;19.80;6.80;;;;;;;6.39;60.75;99948.67;110370;1253;21973;-74
2022/02/22 12:30:32;;;;;;;18.40;7.20;;;;;;;6.43;60.52;99961.63;110658;1253;23031;-74
2022/02/22 12:33:04;;;;;;;24.00;9.90;;;;;;;6.40;60.11;99960.18;110378;1253;21975;-75
2022/02/22 12:35:41;;;;;;;25.60;12.30;;;;;;;6.35;59.99;99964.50;110075;1259;21999;-76
2022/02/22 12:38:28;;;;;;;24.30;9.90;;;;;;;6.33;59.93;99969.11;110025;1259;21983;-76
2022/02/22 12:41:15;;;;;;;23.30;11.00;;;;;;;6.30;59.85;99973.88;109485;1265;22108;-74
2022/02/22 12:43:52;;;;;;;21.90;12.20;;;;;;;6.27;59.72;99974.73;108993;1268;22287;-76
2022/02/22 12:46:23;;;;;;;23.60;10.20;;;;;;;6.23;59.65;99976.39;108930;1271;21985;-76
2022/02/22 12:49:04;;;;;;;21.00;9.90;;;;;;;6.21;59.86;99976.67;108919;1268;23730;-74
2022/02/22 12:51:38;;;;;;;22.30;8.60;;;;;;;6.23;59.91;99979.34;109088;1268;21992;-75
2022/02/22 12:54:20;;;;;;;20.30;10.60;;;;;;;6.25;60.05;99990.83;109051;1264;21981;-76
2022/02/22 12:57:00;;;;;;;20.20;7.10;;;;;;;6.29;59.89;99989.07;109348;1265;23737;-75
2022/02/22 12:59:37;;;;;;;21.60;7.40;;;;;;;6.30;59.80;99994.17;109112;1264;23252;-76
2022/02/22 13:02:11;;;;;;;25.20;8.80;;;;;;;6.30;59.72;100000.42;108932;1268;24756;-75
2022/02/22 13:04:49;;;;;;;20.20;7.50;;;;;;;6.28;59.64;100006.27;108947;1268;23846;-75
2022/02/22 13:07:48;;;;;;;19.50;8.30;;;;;;;6.28;59.85;100012.77;108893;1265;22025;-76
2022/02/22 13:10:21;;;;;;;18.20;7.50;;;;;;;6.26;59.73;100010.98;109503;1262;21973;-76
2022/02/22 13:13:00;;;;;;;22.40;6.40;;;;;;;6.23;59.66;100011.70;109724;1262;21983;-75
2022/02/22 13:15:30;;;;;;;23.50;8.00;;;;;;;6.22;59.69;100016.31;109705;1263;22196;-75
2022/02/22 13:18:21;;;;;;;17.60;6.60;;;;;;;6.24;59.96;100020.30;109359;1262;22403;-75
2022/02/22 13:20:51;;;;;;;15.90;6.50;;;;;;;6.27;59.94;100024.27;109715;1260;21966;-75
2022/02/22 13:23:37;;;;;;;19.40;7.20;;;;;;;6.29;59.98;100025.77;109240;1262;21988;-75
2022/02/22 13:26:11;;;;;;;17.80;5.90;;;;;;;6.33;59.94;100023.25;109498;1264;23033;-75
2022/02/22 13:28:49;;;;;;;14.90;5.80;;;;;;;6.39;59.99;100027.30;109438;1264;22176;-75
2022/02/22 13:31:46;;;;;;;20.00;7.70;;;;;;;6.40;59.73;100028.02;109455;1265;23688;-76
2022/02/22 13:34:22;;;;;;;13.00;6.60;;;;;;;6.38;59.61;100036.64;109317;1265;21965;-75
2022/02/22 13:36:57;;;;;;;21.00;6.90;;;;;;;6.34;59.64;100041.86;109616;1264;23488;-75
2022/02/22 13:39:29;;;;;;;13.70;6.00;;;;;;;6.32;59.67;100042.33;109451;1265;23096;-75
2022/02/22 13:42:02;;;;;;;16.80;5.40;;;;;;;6.29;59.78;100049.38;109849;1258;21984;-76
2022/02/22 13:44:35;;;;;;;18.80;6.90;;;;;;;6.27;59.81;100053.55;110364;1252;22897;-75
2022/02/22 13:47:11;;;;;;;19.20;8.10;;;;;;;6.27;59.86;100053.44;110090;1259;22077;-76
2022/02/22 13:49:47;;;;;;;18.70;6.30;;;;;;;6.27;59.95;100050.07;109700;1261;24457;-76
2022/02/22 13:52:20;;;;;;;17.80;7.20;;;;;;;6.25;59.97;100057.49;109367;1265;21984;-75
2022/02/22 13:54:55;;;;;;;20.50;7.60;;;;;;;6.26;60.17;100060.52;109418;1265;21997;-76
2022/02/22 13:57:35;;;;;;;15.70;5.80;;;;;;;6.28;60.28;100059.95;109034;1270;21988;-76
2022/02/22 14:00:09;;;;;;;15.80;7.00;;;;;;;6.29;60.09;100071.11;109006;1270;23735;-75
2022/02/22 14:02:38;;;;;;;12.30;5.90;;;;;;;6.23;60.16;100076.16;108879;1270;23547;-75
2022/02/22 14:05:11;;;;;;;16.80;6.60;;;;;;;6.21;60.33;100083.08;109114;1265;21975;-76
2022/02/22 14:07:40;;;;;;;12.80;5.10;;;;;;;6.18;60.48;100082.82;109404;1265;22260;-75
2022/02/22 14:10:16;;;;;;;14.70;5.80;;;;;;;6.14;60.61;100083.40;109659;1261;22396;-75
2022/02/22 14:12:49;;;;;;;15.90;7.10;;;;;;;6.08;60.74;100086.19;109872;1259;21972;-75
2022/02/22 14:15:25;;;;;;;16.30;7.30;;;;;;;6.05;60.94;100088.02;110137;1253;21962;-77
2022/02/22 14:17:57;;;;;;;16.20;6.10;;;;;;;6.04;61.26;100087.93;110590;1253;21999;-76
2022/02/22 14:20:27;;;;;;;16.40;7.50;;;;;;;6.04;61.35;100091.27;110522;1253;21982;-75
2022/02/22 14:22:59;;;;;;;15.20;7.40;;;;;;;6.04;61.53;100096.55;110605;1253;22047;-75
2022/02/22 14:25:34;;;;;;;13.90;7.90;;;;;;;6.05;61.78;100094.64;110498;1253;22428;-75
2022/02/22 14:28:11;;;;;;;17.50;9.30;;;;;;;6.09;61.97;100095.80;110655;1253;21963;-76
2022/02/22 14:30:53;;;;;;;21.30;7.80;;;;;;;6.14;62.17;100097.36;110665;1253;22029;-75
2022/02/22 14:33:27;;;;;;;46.90;25.50;;;;;;;6.15;62.06;100099.11;110572;1253;23486;-74
2022/02/22 14:36:00;;;;;;;21.10;9.10;;;;;;;6.13;62.02;100108.63;110487;1253;21991;-75
2022/02/22 14:38:32;;;;;;;24.70;10.30;;;;;;;6.09;62.15;100111.41;110687;1253;23040;-75
2022/02/22 14:41:10;;;;;;;18.80;9.50;;;;;;;6.08;62.36;100112.77;110553;1253;23053;-74
2022/02/22 14:43:40;;;;;;;26.70;9.50;;;;;;;6.05;62.22;100112.55;110631;1252;24468;-74
2022/02/22 14:46:19;;;;;;;18.40;8.50;;;;;;;5.99;62.35;100118.54;110076;1257;21975;-75
2022/02/22 14:48:51;;;;;;;16.90;6.90;;;;;;;5.92;62.38;100118.95;109968;1259;21997;-75
2022/02/22 14:51:27;;;;;;;14.40;6.80;;;;;;;5.81;62.49;100124.17;109807;1258;21973;-75
2022/02/22 14:54:02;;;;;;;11.60;5.70;;;;;;;5.71;62.59;100128.45;109830;1259;21976;-75
2022/02/22 14:56:57;;;;;;;17.90;7.00;;;;;;;5.61;62.89;100128.61;109999;1259;22086;-75
2022/02/22 14:59:30;;;;;;;13.40;7.50;;;;;;;5.55;63.31;100126.85;109977;1258;23596;-76
2022/02/22 15:02:03;;;;;;;13.60;7.80;;;;;;;5.54;63.59;100127.23;109245;1265;23671;-76
2022/02/22 15:04:41;;;;;;;17.40;7.90;;;;;;;5.52;63.85;100125.48;109284;1265;22011;-75
2022/02/22 15:07:15;;;;;;;14.20;6.40;;;;;;;5.55;64.21;100126.77;109157;1268;22059;-74
2022/02/22 15:09:49;;;;;;;12.60;6.10;;;;;;;5.55;64.28;100124.95;108551;1274;23738;-75
2022/02/22 15:12:20;;;;;;;12.60;6.90;;;;;;;5.54;64.33;100133.31;108843;1270;22009;-78
2022/02/22 15:14:53;;;;;;;14.80;7.20;;;;;;;5.53;64.56;100138.64;109103;1270;22062;-74
2022/02/22 15:17:28;;;;;;;13.90;7.50;;;;;;;5.54;64.63;100146.35;108941;1270;22029;-74
2022/02/22 15:20:09;;;;;;;17.70;8.50;;;;;;;5.50;64.46;100149.58;108942;1268;21986;-75
2022/02/22 15:22:46;;;;;;;12.10;6.90;;;;;;;5.43;64.73;100147.91;108566;1274;22117;-74
2022/02/22 15:25:31;;;;;;;15.50;7.60;;;;;;;5.36;64.71;100148.55;108700;1270;22007;-75
2022/02/22 15:28:23;;;;;;;17.10;7.90;;;;;;;5.29;64.99;100148.54;109159;1267;21994;-75
2022/02/22 15:30:56;;;;;;;17.50;8.20;;;;;;;5.25;65.22;100149.55;109134;1266;21994;-81
2022/02/22 15:33:55;;;;;;;19.20;9.90;;;;;;;5.23;65.49;100154.27;110174;1267;22043;-81
2022/02/22 15:36:33;;;;;;;18.40;10.60;;;;;;;5.26;65.80;100160.83;109460;1267;22106;-80
2022/02/22 15:39:16;;;;;;;15.30;9.10;;;;;;;5.30;65.84;100164.69;110058;1259;21979;-80
2022/02/22 15:42:04;;;;;;;20.60;12.60;;;;;;;5.34;65.81;100164.46;109735;1264;21985;-79
2022/02/22 15:45:03;;;;;;;21.80;9.00;;;;;;;5.38;65.87;100161.31;109804;1265;21971;-80
2022/02/22 15:47:43;;;;;;;25.20;13.10;;;;;;;5.42;65.83;100167.25;110472;1257;23451;-80
2022/02/22 15:50:12;;;;;;;22.90;11.90;;;;;;;5.45;65.86;100170.46;110469;1257;21980;-80
2022/02/22 15:52:53;;;;;;;32.20;16.40;;;;;;;5.47;65.83;100170.06;110358;1257;22081;-79
2022/02/22 15:55:42;;;;;;;29.00;17.00;;;;;;;5.50;65.88;100172.31;109924;1258;21979;-79
2022/02/22 15:58:36;;;;;;;21.00;10.30;;;;;;;5.50;65.98;100172.59;109903;1264;22109;-79
2022/02/22 16:01:19;;;;;;;17.30;11.00;;;;;;;5.52;66.05;100177.86;110193;1259;23678;-79
2022/02/22 16:04:08;;;;;;;22.30;13.20;;;;;;;5.53;66.03;100179.68;110090;1259;21977;-82
2022/02/22 16:06:53;;;;;;;10.20;6.00;;;;;;;5.47;66.06;100179.88;110369;1259;21980;-80
2022/02/22 16:09:36;;;;;;;11.60;6.00;;;;;;;5.39;66.15;100177.41;110220;1262;21994;-81
2022/02/22 16:12:22;;;;;;;14.70;8.20;;;;;;;5.34;66.22;100179.98;109451;1267;21989;-80
2022/02/22 16:15:03;;;;;;;17.70;10.20;;;;;;;5.30;66.26;100178.27;109564;1268;21996;-79
2022/02/22 16:17:41;;;;;;;16.80;10.40;;;;;;;5.26;66.27;100181.80;109498;1268;23042;-79
2022/02/22 16:20:27;;;;;;;12.70;8.60;;;;;;;5.24;66.43;100189.67;109468;1268;23595;-79
2022/02/22 16:23:06;;;;;;;13.30;8.50;;;;;;;5.22;66.47;100192.45;109664;1268;22109;-80
2022/02/22 16:25:45;;;;;;;14.40;8.10;;;;;;;5.19;66.35;100195.09;109444;1268;22169;-81
2022/02/22 16:28:18;;;;;;;16.50;8.10;;;;;;;5.15;66.37;100197.23;109677;1267;21994;-80
2022/02/22 16:30:54;;;;;;;16.30;8.50;;;;;;;5.10;66.40;100198.23;109288;1270;22058;-80
2022/02/22 16:33:27;;;;;;;9.00;5.60;;;;;;;5.04;66.33;100199.29;109354;1268;22076;-80
2022/02/22 16:36:09;;;;;;;8.10;5.10;;;;;;;4.97;66.52;100206.14;110089;1261;22026;-79
2022/02/22 16:38:41;;;;;;;11.20;5.70;;;;;;;4.95;66.84;100209.67;110372;1259;22867;-80
2022/02/22 16:41:17;;;;;;;11.10;6.10;;;;;;;4.94;66.73;100213.90;110465;1259;21980;-79
2022/02/22 16:43:51;;;;;;;12.70;6.70;;;;;;;4.93;66.89;100215.73;110029;1259;23628;-79
2022/02/22 16:46:32;;;;;;;15.70;6.70;;;;;;;4.93;66.81;100218.73;110026;1262;23626;-79
2022/02/22 16:49:07;;;;;;;15.70;8.30;;;;;;;4.91;66.80;100218.34;110069;1260;23095;-79
2022/02/22 16:51:42;;;;;;;16.90;8.20;;;;;;;4.89;66.76;100216.23;109513;1266;21975;-78
2022/02/22 16:54:20;;;;;;;15.00;7.60;;;;;;;4.88;66.78;100211.66;109682;1265;22442;-74
2022/02/22 16:56:51;;;;;;;20.90;8.90;;;;;;;4.91;67.08;100210.38;109297;1267;22069;-74
2022/02/22 16:59:42;;;;;;;20.20;9.60;;;;;;;4.93;67.08;100206.52;109007;1268;21992;-75
2022/02/22 17:02:15;;;;;;;20.90;8.60;;;;;;;4.92;66.87;100209.41;108691;1273;22025;-76
2022/02/22 17:04:46;;;;;;;26.30;10.10;;;;;;;4.88;66.73;100206.79;108998;1270;23022;-75
2022/02/22 17:07:18;;;;;;;20.20;11.10;;;;;;;4.82;66.81;100203.45;109124;1268;22038;-75
2022/02/22 17:09:55;;;;;;;21.40;11.00;;;;;;;4.79;67.03;100201.83;109360;1265;22486;-75
2022/02/22 17:12:31;;;;;;;19.10;9.40;;;;;;;4.76;67.08;100208.71;109487;1263;22549;-75
2022/02/22 17:15:11;;;;;;;18.00;10.50;;;;;;;4.73;67.11;100215.10;109638;1262;21978;-75
2022/02/22 17:17:56;;;;;;;19.10;10.40;;;;;;;4.71;67.26;100210.39;109454;1265;22026;-74
2022/02/22 17:20:31;;;;;;;19.40;12.30;;;;;;;4.68;67.36;100210.75;109605;1260;22076;-74
2022/02/22 17:23:01;;;;;;;23.40;16.50;;;;;;;4.67;67.46;100211.42;110025;1262;21986;-75
2022/02/22 17:25:36;;;;;;;;;;;;;;;4.65;67.52;100214.36;109492;1265;22050;-74
2022/02/22 17:28:10;;;;;;;29.50;18.60;;;;;;;4.55;67.60;100210.22;109051;1267;22068;-74
2022/02/22 17:30:39;;;;;;;35.90;17.00;;;;;;;4.48;67.77;100206.36;108936;1270;21988;-76
2022/02/22 17:33:09;;;;;;;25.40;14.40;;;;;;;4.46;67.97;100206.88;108978;1271;22221;-75
2022/02/22 17:35:49;;;;;;;25.20;14.00;;;;;;;4.44;67.88;100207.10;108999;1267;24226;-74
2022/02/22 17:38:24;;;;;;;29.50;15.70;;;;;;;4.43;68.09;100207.04;108591;1273;22118;-76
2022/02/22 17:41:00;;;;;;;23.90;13.30;;;;;;;4.41;68.17;100201.96;108588;1274;22991;-75